createdAt,value
2023-01-19T00:00:26.914Z,27.70
2023-01-19T00:02:55.063Z,25.73
2023-01-19T00:05:22.031Z,24.10
2023-01-19T00:07:48.567Z,19.70
2023-01-19T00:10:15.447Z,27.55
2023-01-19T00:12:41.910Z,21.73
2023-01-19T00:15:08.964Z,23.65
2023-01-19T00:20:01.966Z,24.42
2023-01-19T00:22:28.789Z,19.27
2023-01-19T00:24:55.546Z,20.10
2023-01-19T00:27:21.966Z,21.92
2023-01-19T00:29:48.651Z,19.92
2023-01-19T00:32:17.715Z,17.63
2023-01-19T00:34:49.636Z,19.02
2023-01-19T00:37:17.324Z,19.05
2023-01-19T00:39:44.080Z,19.58
2023-01-19T00:42:33.378Z,21.27
2023-01-19T00:45:00.271Z,19.60
2023-01-19T00:47:26.826Z,23.38
2023-01-19T00:49:53.862Z,23.05
2023-01-19T00:57:15.615Z,14.38
2023-01-19T00:59:42.487Z,22.15
2023-01-19T01:02:09.588Z,20.45
2023-01-19T01:04:36.163Z,20.55
2023-01-19T01:07:03.110Z,19.80
2023-01-19T01:09:30.105Z,16.35
2023-01-19T01:11:56.762Z,18.25
2023-01-19T01:14:24.145Z,20.02
2023-01-19T01:16:50.912Z,21.23
2023-01-19T01:19:17.543Z,19.95
2023-01-19T01:21:43.985Z,18.17
2023-01-19T01:24:10.840Z,18.35
2023-01-19T01:26:37.287Z,20.88
2023-01-19T01:29:06.323Z,20.63
2023-01-19T01:31:32.788Z,17.10
2023-01-19T01:34:02.458Z,20.33
2023-01-19T01:36:32.095Z,20.67
2023-01-19T01:38:59.379Z,19.95
2023-01-19T01:41:27.402Z,19.20
2023-01-19T01:43:58.774Z,19.00
2023-01-19T01:46:28.537Z,19.80
2023-01-19T01:49:16.778Z,17.85
2023-01-19T01:51:50.901Z,21.20
2023-01-19T01:54:23.156Z,18.98
2023-01-19T01:56:52.668Z,22.63
2023-01-19T01:59:27.986Z,20.13
2023-01-19T02:02:20.884Z,23.33
2023-01-19T02:04:52.307Z,23.25
2023-01-19T02:08:13.646Z,20.63
2023-01-19T02:11:00.703Z,18.60
2023-01-19T02:13:29.563Z,18.02
2023-01-19T02:16:01.519Z,21.10
2023-01-19T02:18:30.875Z,18.38
2023-01-19T02:21:12.591Z,21.00
2023-01-19T02:23:40.702Z,18.83
2023-01-19T02:26:09.918Z,17.13
2023-01-19T02:28:43.678Z,18.92
2023-01-19T02:31:10.646Z,18.25
2023-01-19T02:33:37.368Z,20.80
2023-01-19T02:36:06.071Z,16.10
2023-01-19T02:38:32.915Z,19.13
2023-01-19T02:41:04.752Z,17.63
2023-01-19T02:43:33.289Z,19.40
2023-01-19T02:46:00.335Z,19.67
2023-01-19T02:48:26.783Z,18.90
2023-01-19T02:51:04.210Z,17.42
2023-01-19T02:53:42.628Z,18.30
2023-01-19T02:56:29.876Z,12.35
2023-01-19T02:59:17.738Z,16.85
2023-01-19T03:02:26.655Z,17.27
2023-01-19T03:05:11.843Z,18.20
2023-01-19T03:08:04.713Z,18.70
2023-01-19T03:10:56.803Z,17.15
2023-01-19T03:13:39.481Z,20.40
2023-01-19T03:16:14.114Z,18.10
2023-01-19T03:18:45.251Z,14.38
2023-01-19T03:21:14.738Z,21.15
2023-01-19T03:23:45.496Z,18.20
2023-01-19T03:26:17.524Z,15.27
2023-01-19T03:28:47.391Z,22.17
2023-01-19T03:31:17.619Z,14.50
2023-01-19T03:33:50.271Z,14.80
2023-01-19T03:36:25.394Z,21.85
2023-01-19T03:38:53.799Z,16.40
2023-01-19T03:41:24.128Z,17.70
2023-01-19T03:43:53.704Z,17.48
2023-01-19T03:46:22.506Z,18.05
2023-01-19T03:48:49.959Z,17.65
2023-01-19T03:51:17.087Z,22.90
2023-01-19T03:56:17.938Z,19.52
2023-01-19T03:58:45.267Z,16.15
2023-01-19T04:01:12.338Z,18.52
2023-01-19T04:06:05.547Z,20.83
2023-01-19T04:08:32.558Z,24.30
2023-01-19T04:10:59.184Z,15.75
2023-01-19T04:13:28.132Z,18.13
2023-01-19T04:15:55.111Z,20.27
2023-01-19T04:20:48.023Z,18.73
2023-01-19T04:23:14.982Z,19.92
2023-01-19T04:28:09.275Z,21.02
2023-01-19T04:30:35.889Z,17.75
2023-01-19T04:33:03.219Z,19.90
2023-01-19T04:35:30.209Z,16.42
2023-01-19T04:37:56.719Z,17.67
2023-01-19T04:40:23.545Z,15.55
2023-01-19T04:42:51.005Z,22.30
2023-01-19T04:45:17.492Z,20.48
2023-01-19T04:47:43.991Z,15.38
2023-01-19T04:50:11.652Z,18.98
2023-01-19T04:52:38.386Z,16.58
2023-01-19T04:55:06.646Z,14.80
2023-01-19T04:57:33.211Z,15.98
2023-01-19T05:00:00.053Z,16.38
2023-01-19T05:02:26.856Z,18.85
2023-01-19T05:04:53.969Z,20.67
2023-01-19T05:09:46.840Z,27.05
2023-01-19T05:12:13.715Z,20.70
2023-01-19T05:14:40.309Z,23.98
2023-01-19T05:17:07.186Z,21.48
2023-01-19T05:19:33.660Z,22.40
2023-01-19T05:22:01.778Z,20.00
2023-01-19T05:24:28.396Z,19.63
2023-01-19T05:26:55.592Z,26.23
2023-01-19T05:29:22.525Z,17.33
2023-01-19T05:31:49.127Z,15.25
2023-01-19T05:34:15.749Z,21.35
2023-01-19T05:36:42.585Z,17.42
2023-01-19T05:39:09.357Z,24.92
2023-01-19T05:41:36.209Z,22.33
2023-01-19T05:44:02.873Z,22.85
2023-01-19T05:46:29.765Z,23.50
2023-01-19T05:48:56.347Z,17.98
2023-01-19T05:51:22.876Z,21.92
2023-01-19T05:53:49.929Z,21.55
2023-01-19T05:58:42.800Z,20.80
2023-01-19T06:01:10.321Z,26.95
2023-01-19T06:03:39.697Z,22.17
2023-01-19T06:06:06.484Z,21.52
2023-01-19T06:08:33.214Z,21.17
2023-01-19T06:10:59.952Z,20.08
2023-01-19T06:13:26.388Z,20.15
2023-01-19T06:15:57.941Z,20.30
2023-01-19T06:18:24.891Z,25.02
2023-01-19T06:20:52.523Z,19.45
2023-01-19T06:23:21.004Z,22.05
2023-01-19T06:25:49.951Z,23.58
2023-01-19T06:28:16.462Z,20.35
2023-01-19T06:30:43.562Z,20.77
2023-01-19T06:33:10.027Z,26.23
2023-01-19T06:35:36.463Z,23.17
2023-01-19T06:38:03.002Z,22.83
2023-01-19T06:40:30.007Z,17.80
2023-01-19T06:42:56.477Z,19.83
2023-01-19T06:45:23.222Z,22.75
2023-01-19T06:47:50.010Z,19.52
2023-01-19T06:50:16.837Z,20.80
2023-01-19T06:52:43.395Z,24.05
2023-01-19T06:55:11.476Z,22.33
2023-01-19T06:57:39.128Z,18.63
2023-01-19T07:02:36.137Z,20.50
2023-01-19T07:05:02.879Z,16.75
2023-01-19T07:07:29.868Z,20.88
2023-01-19T07:09:56.362Z,17.70
2023-01-19T07:12:23.396Z,22.15
2023-01-19T07:17:16.636Z,16.92
2023-01-19T07:19:43.165Z,17.35
2023-01-19T07:22:10.052Z,16.85
2023-01-19T07:24:37.956Z,19.15
2023-01-19T07:27:05.488Z,20.00
2023-01-19T07:29:32.016Z,19.42
2023-01-19T07:31:58.645Z,19.92
2023-01-19T07:34:25.246Z,18.92
2023-01-19T07:36:51.709Z,20.27
2023-01-19T07:39:18.361Z,27.77
2023-01-19T07:41:45.019Z,17.77
2023-01-19T07:44:11.837Z,19.25
2023-01-19T07:46:38.385Z,20.85
2023-01-19T07:49:08.005Z,18.58
2023-01-19T07:51:35.029Z,20.40
2023-01-19T07:56:39.199Z,17.80
2023-01-19T07:59:07.339Z,17.95
2023-01-19T08:01:37.773Z,21.30
2023-01-19T08:04:04.809Z,21.45
2023-01-19T08:06:37.665Z,18.38
2023-01-19T08:09:13.766Z,18.63
2023-01-19T08:11:40.423Z,23.05
2023-01-19T08:14:08.121Z,21.42
2023-01-19T08:16:35.702Z,21.10
2023-01-19T08:19:03.582Z,20.70
2023-01-19T08:21:30.321Z,21.95
2023-01-19T08:23:57.934Z,21.02
2023-01-19T08:26:31.455Z,21.85
2023-01-19T08:29:00.227Z,20.15
2023-01-19T08:31:27.183Z,18.55
2023-01-19T08:33:53.911Z,17.05
2023-01-19T08:36:22.465Z,20.42
2023-01-19T08:38:49.070Z,17.10
2023-01-19T08:41:18.460Z,17.85
2023-01-19T08:43:45.546Z,21.17
2023-01-19T08:46:12.669Z,22.52
2023-01-19T08:48:40.123Z,18.65
2023-01-19T08:51:06.805Z,17.23
2023-01-19T08:53:34.127Z,25.45
2023-01-19T08:56:01.927Z,24.17
2023-01-19T08:58:28.747Z,19.60
2023-01-19T09:00:56.132Z,22.17
2023-01-19T09:03:23.010Z,20.05
2023-01-19T09:05:50.348Z,23.35
2023-01-19T09:08:17.072Z,19.83
2023-01-19T09:10:49.910Z,21.05
2023-01-19T09:13:17.371Z,21.48
2023-01-19T09:15:45.020Z,22.98
2023-01-19T09:18:16.766Z,17.20
2023-01-19T09:20:44.906Z,16.77
2023-01-19T09:23:17.259Z,19.83
2023-01-19T09:25:46.308Z,18.13
2023-01-19T09:28:14.813Z,19.42
2023-01-19T09:30:43.076Z,17.65
2023-01-19T09:33:15.262Z,19.70
2023-01-19T09:35:43.609Z,20.75
2023-01-19T09:38:10.972Z,16.67
2023-01-19T09:40:56.412Z,16.58
2023-01-19T09:43:45.651Z,21.45
2023-01-19T09:46:17.453Z,18.08
2023-01-19T09:48:53.684Z,16.50
2023-01-19T09:51:26.066Z,18.05
2023-01-19T09:54:02.918Z,16.27
2023-01-19T09:58:58.043Z,21.25
2023-01-19T10:01:45.164Z,19.70
2023-01-19T10:04:31.154Z,20.27
2023-01-19T10:07:08.998Z,25.43
2023-01-19T10:09:47.708Z,16.77
2023-01-19T10:12:33.059Z,23.00
2023-01-19T10:15:14.715Z,17.73
2023-01-19T10:17:47.570Z,20.40
2023-01-19T10:20:24.202Z,22.70
2023-01-19T10:22:50.800Z,18.45
2023-01-19T10:25:24.579Z,19.85
2023-01-19T10:27:51.648Z,19.88
2023-01-19T10:30:28.816Z,22.80
2023-01-19T10:32:55.636Z,20.65
2023-01-19T10:35:25.438Z,21.88
2023-01-19T10:37:56.261Z,22.73
2023-01-19T10:40:33.330Z,21.17
2023-01-19T10:43:00.735Z,21.88
2023-01-19T10:45:31.628Z,19.52
2023-01-19T10:48:06.298Z,19.27
2023-01-19T10:50:39.882Z,16.02
2023-01-19T10:53:20.470Z,16.48
2023-01-19T10:55:47.134Z,20.02
2023-01-19T10:58:31.247Z,20.80
2023-01-19T11:01:13.924Z,21.20
2023-01-19T11:03:40.923Z,17.77
2023-01-19T11:06:13.849Z,18.25
2023-01-19T11:08:42.140Z,20.02
2023-01-19T11:11:09.807Z,18.50
2023-01-19T11:13:36.840Z,15.27
2023-01-19T11:16:12.624Z,15.70
2023-01-19T11:18:41.146Z,20.52
2023-01-19T11:21:09.677Z,18.08
2023-01-19T11:23:57.795Z,18.48
2023-01-19T11:26:33.871Z,15.68
2023-01-19T11:29:03.842Z,15.02
2023-01-19T11:31:34.536Z,15.27
2023-01-19T11:34:06.296Z,17.85
2023-01-19T11:36:35.408Z,15.93
2023-01-19T11:39:24.604Z,14.57
2023-01-19T11:41:58.181Z,18.73
2023-01-19T11:44:30.611Z,21.00
2023-01-19T11:47:00.996Z,18.88
2023-01-19T11:49:58.727Z,21.33
2023-01-19T11:52:36.030Z,18.77
2023-01-19T11:55:14.738Z,17.73
2023-01-19T11:57:54.573Z,17.88
2023-01-19T12:00:36.545Z,19.35
2023-01-19T12:03:13.543Z,16.90
2023-01-19T12:05:46.702Z,18.45
2023-01-19T12:08:23.936Z,14.98
2023-01-19T12:10:52.952Z,16.15
2023-01-19T12:13:24.994Z,13.85
2023-01-19T12:15:57.820Z,14.02
2023-01-19T12:18:30.565Z,13.40
2023-01-19T12:20:58.873Z,19.60
2023-01-19T12:23:48.498Z,18.20
2023-01-19T12:26:27.767Z,14.68
2023-01-19T12:28:58.692Z,16.20
2023-01-19T12:31:25.695Z,15.35
2023-01-19T12:33:52.865Z,16.33
2023-01-19T12:36:37.533Z,17.27
2023-01-19T12:39:23.742Z,15.50
2023-01-19T12:42:07.594Z,17.50
2023-01-19T12:44:34.835Z,18.63
2023-01-19T12:47:24.565Z,17.70
2023-01-19T12:49:55.265Z,16.27
2023-01-19T12:52:28.795Z,17.85
2023-01-19T12:55:16.182Z,18.77
2023-01-19T12:57:48.909Z,17.58
2023-01-19T13:00:21.684Z,15.48
2023-01-19T13:02:56.430Z,13.77
2023-01-19T13:05:23.442Z,19.10
2023-01-19T13:11:02.712Z,16.15
2023-01-19T13:13:37.325Z,13.35
2023-01-19T13:16:20.160Z,13.18
2023-01-19T13:18:57.103Z,12.73
2023-01-19T13:23:56.893Z,11.40
2023-01-19T13:26:34.066Z,12.70
2023-01-19T13:29:27.496Z,17.70
2023-01-19T13:32:02.558Z,14.73
2023-01-19T13:34:33.929Z,18.65
2023-01-19T13:37:01.967Z,15.32
2023-01-19T13:39:32.440Z,13.65
2023-01-19T13:42:05.628Z,13.30
2023-01-19T13:44:43.757Z,17.88
2023-01-19T13:47:30.992Z,14.90
2023-01-19T13:49:58.564Z,17.85
2023-01-19T13:52:28.458Z,13.07
2023-01-19T13:55:03.343Z,12.82
2023-01-19T13:57:33.956Z,12.90
2023-01-19T14:00:17.211Z,13.15
2023-01-19T14:03:00.510Z,10.57
2023-01-19T14:05:34.330Z,10.55
2023-01-19T14:08:06.873Z,10.15
2023-01-19T14:10:35.578Z,11.23
2023-01-19T14:13:25.124Z,11.48
2023-01-19T14:15:55.542Z,11.75
2023-01-19T14:18:31.794Z,11.23
2023-01-19T14:21:03.311Z,11.20
2023-01-19T14:23:50.232Z,9.60
2023-01-19T14:26:48.237Z,12.40
2023-01-19T14:29:17.844Z,15.13
2023-01-19T14:31:48.691Z,10.77
2023-01-19T14:34:35.790Z,11.32
2023-01-19T14:39:35.263Z,15.13
2023-01-19T14:42:05.225Z,12.35
2023-01-19T14:44:35.822Z,12.63
2023-01-19T14:47:04.436Z,12.95
2023-01-19T14:49:35.564Z,11.50
2023-01-19T14:52:23.942Z,12.30
2023-01-19T14:54:51.189Z,12.68
2023-01-19T14:59:50.599Z,11.82
2023-01-19T15:02:20.789Z,13.57
2023-01-19T15:04:55.322Z,16.15
2023-01-19T15:07:25.149Z,13.63
2023-01-19T15:09:51.893Z,12.15
2023-01-19T15:12:19.286Z,13.75
2023-01-19T15:14:46.157Z,12.95
2023-01-19T15:17:17.652Z,14.82
2023-01-19T15:19:46.462Z,13.52
2023-01-19T15:22:16.264Z,13.75
2023-01-19T15:24:43.160Z,13.60
2023-01-19T15:27:12.505Z,16.13
2023-01-19T15:29:42.559Z,15.07
2023-01-19T15:32:13.993Z,11.13
2023-01-19T15:34:42.751Z,14.63
2023-01-19T15:37:11.883Z,13.45
2023-01-19T15:39:39.761Z,12.98
2023-01-19T15:42:12.490Z,15.77
2023-01-19T15:44:39.289Z,9.90
2023-01-19T15:47:06.145Z,11.68
2023-01-19T15:49:33.379Z,12.10
2023-01-19T15:52:03.198Z,8.93
2023-01-19T15:54:30.655Z,8.57
2023-01-19T15:56:57.200Z,10.35
2023-01-19T15:59:26.235Z,6.13
2023-01-19T16:01:52.941Z,7.40
2023-01-19T16:04:20.586Z,6.75
2023-01-19T16:06:47.318Z,6.60
2023-01-19T16:09:18.633Z,11.38
2023-01-19T16:11:46.164Z,9.68
2023-01-19T16:14:12.606Z,9.98
2023-01-19T16:16:39.404Z,10.02
2023-01-19T16:19:05.883Z,9.88
2023-01-19T16:21:32.513Z,10.40
2023-01-19T16:23:59.389Z,39.20
2023-01-19T16:26:34.762Z,24.98
2023-01-19T16:29:08.628Z,17.45
2023-01-19T16:31:42.789Z,13.00
2023-01-19T16:34:09.869Z,11.32
2023-01-19T16:39:06.927Z,10.73
2023-01-19T16:41:35.124Z,16.10
2023-01-19T16:44:01.974Z,13.70
2023-01-19T16:46:34.008Z,14.15
2023-01-19T16:49:04.851Z,10.63
2023-01-19T16:51:32.011Z,7.80
2023-01-19T16:53:59.452Z,9.55
2023-01-19T16:56:25.916Z,10.73
2023-01-19T16:58:56.505Z,12.57
2023-01-19T17:01:24.732Z,9.18
2023-01-19T17:03:53.890Z,10.95
2023-01-19T17:06:22.872Z,15.45
2023-01-19T17:08:50.869Z,13.27
2023-01-19T17:11:26.841Z,10.90
2023-01-19T17:14:00.150Z,12.50
2023-01-19T17:16:28.444Z,7.75
2023-01-19T17:18:57.681Z,6.18
2023-01-19T17:21:24.898Z,4.28
2023-01-19T17:23:55.704Z,5.97
2023-01-19T17:26:25.309Z,6.13
2023-01-19T17:28:52.300Z,4.40
2023-01-19T17:31:22.098Z,4.68
2023-01-19T17:33:50.173Z,7.68
2023-01-19T17:36:22.495Z,4.82
2023-01-19T17:38:50.685Z,6.45
2023-01-19T17:41:45.911Z,9.57
2023-01-19T17:44:12.602Z,6.57
2023-01-19T17:46:39.193Z,11.82
2023-01-19T17:49:07.206Z,7.50
2023-01-19T17:51:34.164Z,8.02
2023-01-19T17:58:57.782Z,5.47
2023-01-19T18:01:30.534Z,5.18
2023-01-19T18:03:58.624Z,6.80
2023-01-19T18:06:25.663Z,5.82
2023-01-19T18:08:52.635Z,5.65
2023-01-19T18:13:50.679Z,5.57
2023-01-19T18:16:26.375Z,6.53
2023-01-19T18:18:54.761Z,6.70
2023-01-19T18:21:23.808Z,7.65
2023-01-19T18:23:51.338Z,4.20
2023-01-19T18:26:20.967Z,4.97
2023-01-19T18:28:48.895Z,4.97
2023-01-19T18:31:17.965Z,5.88
2023-01-19T18:33:45.119Z,3.33
2023-01-19T18:36:11.602Z,3.72
2023-01-19T18:38:39.046Z,4.97
2023-01-19T18:41:08.600Z,7.93
2023-01-19T18:43:37.744Z,4.95
2023-01-19T18:46:05.094Z,6.97
2023-01-19T18:48:31.825Z,6.55
2023-01-19T18:51:04.344Z,8.48
2023-01-19T18:53:32.014Z,4.78
2023-01-19T18:56:01.872Z,7.82
2023-01-19T18:58:29.907Z,6.28
2023-01-19T19:00:56.632Z,4.93
2023-01-19T19:03:23.689Z,12.65
2023-01-19T19:10:44.533Z,11.43
2023-01-19T19:13:15.998Z,3.95
2023-01-19T19:15:44.461Z,7.40
2023-01-19T19:18:13.613Z,4.97
2023-01-19T19:20:42.191Z,4.70
2023-01-19T19:23:09.748Z,4.15
2023-01-19T19:25:37.545Z,7.00
2023-01-19T19:28:04.612Z,6.07
2023-01-19T19:33:01.021Z,5.00
2023-01-19T19:35:28.384Z,5.57
2023-01-19T19:40:28.120Z,4.25
2023-01-19T19:42:58.355Z,10.07
2023-01-19T19:45:25.627Z,9.15
2023-01-19T19:47:52.342Z,12.73
2023-01-19T19:50:20.534Z,7.30
2023-01-19T19:52:47.077Z,6.68
2023-01-19T19:55:13.920Z,4.35
2023-01-19T19:57:40.426Z,6.53
2023-01-19T20:00:08.414Z,6.78
2023-01-19T20:02:37.823Z,6.25
2023-01-19T20:05:07.611Z,7.45
2023-01-19T20:07:34.473Z,9.68
2023-01-19T20:10:01.131Z,5.28
2023-01-19T20:12:27.816Z,8.98
2023-01-19T20:14:54.684Z,4.65
2023-01-19T20:17:21.492Z,6.20
2023-01-19T20:19:49.107Z,5.13
2023-01-19T20:22:15.866Z,4.50
2023-01-19T20:24:42.657Z,7.65
2023-01-19T20:27:09.942Z,5.40
2023-01-19T20:29:36.552Z,7.18
2023-01-19T20:32:03.367Z,7.20
2023-01-19T20:34:33.365Z,6.38
2023-01-19T20:37:01.599Z,10.77
2023-01-19T20:39:30.033Z,13.90
2023-01-19T20:41:56.875Z,10.20
2023-01-19T20:44:25.105Z,9.82
2023-01-19T20:46:52.622Z,7.53
2023-01-19T20:49:19.712Z,6.32
2023-01-19T20:54:16.646Z,3.58
2023-01-19T20:56:44.725Z,7.07
2023-01-19T20:59:12.235Z,3.15
2023-01-19T21:01:43.086Z,3.58
2023-01-19T21:04:11.484Z,5.22
2023-01-19T21:06:38.642Z,4.28
2023-01-19T21:09:08.989Z,5.47
2023-01-19T21:11:36.936Z,3.22
2023-01-19T21:14:04.658Z,5.22
2023-01-19T21:16:33.980Z,3.65
2023-01-19T21:19:03.199Z,5.43
2023-01-19T21:21:31.905Z,2.90
2023-01-19T21:24:03.376Z,3.25
2023-01-19T21:26:30.470Z,3.28
2023-01-19T21:28:58.567Z,4.20
2023-01-19T21:31:27.794Z,5.75
2023-01-19T21:33:56.691Z,5.72
2023-01-19T21:36:24.608Z,7.97
2023-01-19T21:38:55.562Z,4.90
2023-01-19T21:41:22.619Z,5.85
2023-01-19T21:43:49.499Z,7.35
2023-01-19T21:46:21.839Z,6.85
2023-01-19T21:48:48.666Z,5.03
2023-01-19T21:51:17.807Z,3.55
2023-01-19T21:53:44.761Z,3.45
2023-01-19T21:56:11.714Z,4.43
2023-01-19T21:58:38.739Z,5.60
2023-01-19T22:01:13.654Z,4.78
2023-01-19T22:03:40.861Z,7.10
2023-01-19T22:08:35.885Z,2.40
2023-01-19T22:11:06.883Z,6.30
2023-01-19T22:13:35.430Z,4.07
2023-01-19T22:16:03.696Z,3.30
2023-01-19T22:18:30.284Z,3.03
2023-01-19T22:21:06.334Z,3.67
2023-01-19T22:23:32.805Z,2.20
2023-01-19T22:26:00.147Z,4.43
2023-01-19T22:28:26.752Z,5.78
2023-01-19T22:30:53.820Z,3.75
2023-01-19T22:35:46.812Z,4.40
2023-01-19T22:38:13.565Z,2.92
2023-01-19T22:40:45.302Z,1.70
2023-01-19T22:43:12.427Z,5.10
2023-01-19T22:45:42.924Z,3.55
2023-01-19T22:48:09.740Z,1.98
2023-01-19T22:50:36.266Z,4.80
2023-01-19T22:53:02.733Z,3.03
2023-01-19T22:55:30.628Z,2.00
2023-01-19T22:57:57.244Z,3.53
2023-01-19T23:00:23.858Z,1.98
2023-01-19T23:02:50.307Z,3.13
2023-01-19T23:05:17.261Z,3.55
2023-01-19T23:07:44.089Z,2.47
2023-01-19T23:10:11.080Z,4.13
2023-01-19T23:15:04.987Z,3.85
2023-01-19T23:17:31.512Z,3.20
2023-01-19T23:19:57.985Z,8.90
2023-01-19T23:22:24.876Z,2.13
2023-01-19T23:24:51.395Z,3.80
2023-01-19T23:27:17.849Z,2.95
2023-01-19T23:29:44.695Z,4.40
2023-01-19T23:32:11.129Z,5.93
2023-01-19T23:34:37.669Z,3.95
2023-01-19T23:37:04.438Z,4.53
2023-01-19T23:39:31.149Z,3.25
2023-01-19T23:41:57.675Z,5.28
2023-01-19T23:44:24.525Z,3.63
2023-01-19T23:46:51.031Z,4.65
2023-01-19T23:49:18.209Z,5.30
2023-01-19T23:51:45.399Z,2.97
2023-01-19T23:54:12.490Z,4.18
2023-01-19T23:56:42.422Z,5.80
2023-01-19T23:59:12.561Z,5.97
